createdAt,value
2023-01-19T00:04:02.244Z,3.67
2023-01-19T00:09:03.949Z,3.67
2023-01-19T00:14:06.060Z,3.66
2023-01-19T00:19:08.712Z,3.69
2023-01-19T00:24:11.259Z,3.65
2023-01-19T00:29:13.948Z,3.58
2023-01-19T00:34:15.794Z,3.56
2023-01-19T00:39:17.415Z,3.52
2023-01-19T00:44:19.274Z,3.54
2023-01-19T00:49:20.901Z,3.48
2023-01-19T00:54:22.516Z,3.46
2023-01-19T00:59:25.790Z,3.54
2023-01-19T01:04:27.442Z,3.47
2023-01-19T01:09:29.262Z,3.54
2023-01-19T01:14:31.098Z,3.50
2023-01-19T01:19:32.897Z,3.50
2023-01-19T01:24:35.679Z,3.46
2023-01-19T01:29:37.837Z,3.43
2023-01-19T01:34:39.762Z,3.42
2023-01-19T01:39:41.430Z,3.47
2023-01-19T01:44:52.748Z,3.46
2023-01-19T01:50:09.963Z,3.34
2023-01-19T01:55:13.126Z,3.35
2023-01-19T02:00:15.561Z,3.26
2023-01-19T02:05:31.707Z,3.35
2023-01-19T02:10:52.464Z,3.36
2023-01-19T02:15:58.467Z,3.32
2023-01-19T02:21:15.063Z,3.35
2023-01-19T02:26:20.981Z,3.28
2023-01-19T02:31:23.010Z,3.28
2023-01-19T02:36:40.385Z,3.26
2023-01-19T02:41:47.712Z,3.27
2023-01-19T02:46:49.570Z,3.29
2023-01-19T02:51:51.199Z,3.33
2023-01-19T02:57:08.269Z,3.27
2023-01-19T03:02:33.341Z,3.20
2023-01-19T03:07:37.964Z,3.08
2023-01-19T03:12:50.174Z,3.11
2023-01-19T03:17:53.425Z,3.03
2023-01-19T03:23:05.301Z,3.02
2023-01-19T03:28:06.928Z,2.79
2023-01-19T03:33:14.676Z,2.92
2023-01-19T03:38:22.123Z,2.84
2023-01-19T03:43:25.101Z,2.73
2023-01-19T03:48:27.143Z,2.72
2023-01-19T03:53:28.966Z,2.66
2023-01-19T03:58:30.591Z,2.64
2023-01-19T04:03:32.178Z,2.63
2023-01-19T04:08:33.922Z,2.58
2023-01-19T04:13:36.406Z,2.60
2023-01-19T04:18:38.088Z,2.52
2023-01-19T04:23:39.746Z,2.52
2023-01-19T04:28:41.525Z,2.35
2023-01-19T04:33:43.334Z,2.32
2023-01-19T04:38:46.667Z,2.43
2023-01-19T04:43:49.227Z,2.44
2023-01-19T04:48:50.931Z,2.36
2023-01-19T04:53:52.571Z,2.39
2023-01-19T04:58:54.223Z,2.48
2023-01-19T05:03:59.026Z,2.50
2023-01-19T05:09:00.723Z,2.60
2023-01-19T05:14:02.327Z,2.59
2023-01-19T05:19:04.018Z,2.63
2023-01-19T05:24:06.003Z,2.67
2023-01-19T05:29:08.237Z,2.63
2023-01-19T05:34:11.933Z,2.70
2023-01-19T05:39:13.659Z,2.67
2023-01-19T05:44:15.359Z,2.69
2023-01-19T05:49:16.999Z,2.70
2023-01-19T05:54:19.010Z,2.73
2023-01-19T05:59:24.167Z,2.68
2023-01-19T06:04:26.908Z,2.62
2023-01-19T06:09:29.311Z,2.68
2023-01-19T06:14:31.378Z,2.68
2023-01-19T06:19:33.706Z,2.72
2023-01-19T06:24:35.757Z,2.68
2023-01-19T06:29:37.440Z,2.71
2023-01-19T06:34:43.760Z,2.68
2023-01-19T06:39:45.563Z,2.72
2023-01-19T06:44:48.016Z,2.73
2023-01-19T06:49:49.912Z,2.62
2023-01-19T06:54:51.504Z,2.71
2023-01-19T06:59:53.174Z,2.67
2023-01-19T07:04:55.492Z,2.71
2023-01-19T07:09:57.310Z,2.74
2023-01-19T07:14:58.899Z,2.80
2023-01-19T07:20:00.578Z,2.75
2023-01-19T07:25:02.627Z,2.75
2023-01-19T07:30:04.754Z,2.77
2023-01-19T07:35:06.661Z,2.84
2023-01-19T07:40:10.252Z,2.79
2023-01-19T07:45:11.925Z,2.78
2023-01-19T07:50:13.962Z,2.74
2023-01-19T07:55:15.674Z,2.70
2023-01-19T08:00:22.024Z,2.76
2023-01-19T08:05:23.876Z,2.68
2023-01-19T08:10:27.207Z,2.82
2023-01-19T08:15:28.887Z,2.88
2023-01-19T08:20:31.002Z,2.85
2023-01-19T08:25:34.351Z,2.89
2023-01-19T08:30:36.412Z,2.94
2023-01-19T08:35:43.048Z,2.97
2023-01-19T08:40:45.144Z,2.98
2023-01-19T08:45:51.566Z,2.95
2023-01-19T08:50:53.656Z,3.09
2023-01-19T08:56:01.303Z,3.12
2023-01-19T09:01:04.058Z,3.12
2023-01-19T09:06:07.573Z,3.25
2023-01-19T09:11:13.696Z,3.32
2023-01-19T09:16:15.935Z,3.35
2023-01-19T09:21:18.621Z,3.37
2023-01-19T09:26:22.261Z,3.49
2023-01-19T09:31:24.192Z,3.66
2023-01-19T09:36:26.767Z,3.66
2023-01-19T09:41:29.732Z,3.72
2023-01-19T09:46:40.357Z,3.57
2023-01-19T09:51:46.755Z,3.69
2023-01-19T09:56:52.417Z,3.71
2023-01-19T10:02:10.545Z,3.74
2023-01-19T10:07:37.987Z,3.76
2023-01-19T10:12:57.471Z,3.91
2023-01-19T10:18:34.913Z,3.88
2023-01-19T10:23:57.601Z,3.99
2023-01-19T10:29:04.395Z,4.01
2023-01-19T10:34:06.113Z,3.90
2023-01-19T10:39:11.584Z,3.96
2023-01-19T10:44:24.457Z,4.08
2023-01-19T10:49:40.461Z,3.94
2023-01-19T10:54:43.537Z,4.04
2023-01-19T10:59:45.249Z,3.96
2023-01-19T11:04:53.013Z,3.93
2023-01-19T11:10:23.066Z,4.07
2023-01-19T11:15:47.645Z,4.07
2023-01-19T11:20:55.370Z,4.09
2023-01-19T11:26:02.565Z,4.25
2023-01-19T11:31:10.505Z,4.14
2023-01-19T11:36:32.912Z,4.23
2023-01-19T11:41:37.566Z,4.26
2023-01-19T11:46:42.492Z,4.16
2023-01-19T11:51:58.839Z,4.11
2023-01-19T11:57:01.964Z,4.12
2023-01-19T12:02:16.609Z,4.17
2023-01-19T12:07:25.871Z,4.15
2023-01-19T12:12:31.683Z,4.18
2023-01-19T12:17:47.615Z,4.06
2023-01-19T12:22:59.771Z,4.13
2023-01-19T12:28:02.845Z,4.26
2023-01-19T12:33:20.641Z,4.15
2023-01-19T12:38:49.467Z,4.23
2023-01-19T12:44:22.361Z,4.08
2023-01-19T12:49:41.581Z,4.05
2023-01-19T12:55:03.009Z,3.95
2023-01-19T13:00:27.371Z,3.77
2023-01-19T13:05:33.233Z,3.67
2023-01-19T13:10:59.386Z,3.76
2023-01-19T13:16:29.989Z,3.75
2023-01-19T13:21:42.354Z,3.74
2023-01-19T13:26:55.016Z,3.67
2023-01-19T13:32:02.899Z,3.75
2023-01-19T13:37:06.278Z,3.66
2023-01-19T13:42:18.469Z,3.69
2023-01-19T13:47:36.798Z,3.67
2023-01-19T13:52:43.386Z,3.61
2023-01-19T13:57:46.743Z,3.61
2023-01-19T14:03:13.318Z,3.62
2023-01-19T14:08:18.104Z,3.59
2023-01-19T14:13:29.532Z,3.57
2023-01-19T14:18:33.899Z,3.54
2023-01-19T14:23:47.618Z,3.51
2023-01-19T14:28:49.645Z,3.53
2023-01-19T14:33:55.622Z,3.41
2023-01-19T14:39:00.049Z,3.41
2023-01-19T14:44:02.945Z,3.39
2023-01-19T14:49:06.487Z,3.29
2023-01-19T14:54:17.671Z,3.22
2023-01-19T14:59:19.372Z,3.19
2023-01-19T15:04:21.014Z,3.14
2023-01-19T15:09:23.107Z,3.06
2023-01-19T15:14:24.871Z,3.04
2023-01-19T15:19:27.004Z,2.95
2023-01-19T15:24:28.704Z,2.95
2023-01-19T15:29:32.252Z,2.94
2023-01-19T15:34:33.993Z,2.85
2023-01-19T15:39:35.825Z,2.84
2023-01-19T15:44:37.480Z,2.87
2023-01-19T15:49:39.144Z,2.84
2023-01-19T15:54:40.826Z,2.77
2023-01-19T15:59:42.439Z,2.72
2023-01-19T16:04:49.215Z,2.86
2023-01-19T16:09:50.828Z,2.97
2023-01-19T16:14:52.484Z,3.04
2023-01-19T16:19:54.182Z,2.95
2023-01-19T16:24:56.611Z,2.93
2023-01-19T16:30:04.605Z,2.91
2023-01-19T16:35:06.740Z,2.90
2023-01-19T16:40:09.590Z,2.76
2023-01-19T16:45:11.349Z,2.73
2023-01-19T16:50:13.345Z,2.73
2023-01-19T16:55:15.355Z,2.73
2023-01-19T17:00:17.401Z,2.79
2023-01-19T17:05:19.043Z,2.77
2023-01-19T17:10:20.817Z,2.69
2023-01-19T17:15:22.500Z,2.63
2023-01-19T17:20:24.165Z,2.58
2023-01-19T17:25:25.779Z,2.53
2023-01-19T17:30:27.447Z,2.52
2023-01-19T17:35:29.224Z,2.48
2023-01-19T17:40:31.059Z,2.55
2023-01-19T17:45:36.162Z,2.42
2023-01-19T17:50:37.833Z,2.37
2023-01-19T17:55:39.459Z,2.40
2023-01-19T18:00:41.104Z,2.33
2023-01-19T18:05:42.717Z,2.31
2023-01-19T18:10:44.319Z,2.34
2023-01-19T18:15:46.104Z,2.25
2023-01-19T18:20:47.821Z,2.25
2023-01-19T18:25:49.486Z,2.26
2023-01-19T18:30:51.182Z,2.10
2023-01-19T18:36:11.133Z,2.03
2023-01-19T18:41:15.625Z,1.92
2023-01-19T18:46:17.478Z,1.88
2023-01-19T18:51:19.990Z,1.69
2023-01-19T18:56:21.843Z,1.71
2023-01-19T19:01:31.554Z,1.51
2023-01-19T19:06:34.490Z,1.47
2023-01-19T19:11:36.486Z,1.40
2023-01-19T19:16:39.537Z,1.47
2023-01-19T19:21:42.408Z,1.57
2023-01-19T19:26:44.042Z,1.57
2023-01-19T19:31:46.441Z,1.49
2023-01-19T19:36:48.097Z,1.59
2023-01-19T19:41:49.866Z,1.58
2023-01-19T19:46:51.592Z,1.55
2023-01-19T19:51:53.254Z,1.43
2023-01-19T19:56:54.890Z,1.16
2023-01-19T20:01:56.756Z,1.09
2023-01-19T20:07:00.102Z,1.12
2023-01-19T20:12:01.969Z,1.02
2023-01-19T20:17:05.076Z,0.87
2023-01-19T20:22:07.483Z,0.82
2023-01-19T20:27:09.193Z,0.69
2023-01-19T20:32:10.910Z,0.74
2023-01-19T20:37:12.525Z,0.66
2023-01-19T20:42:16.435Z,0.66
2023-01-19T20:47:18.294Z,0.61
2023-01-19T20:52:21.554Z,0.50
2023-01-19T20:57:23.662Z,0.45
2023-01-19T21:02:28.424Z,0.49
2023-01-19T21:07:30.423Z,0.46
2023-01-19T21:12:32.121Z,0.51
2023-01-19T21:17:33.771Z,0.39
2023-01-19T21:22:35.384Z,0.37
2023-01-19T21:27:36.965Z,0.38
2023-01-19T21:32:39.001Z,0.37
2023-01-19T21:37:40.693Z,0.43
2023-01-19T21:42:42.291Z,0.35
2023-01-19T21:47:43.936Z,0.28
2023-01-19T21:52:45.556Z,0.27
2023-01-19T21:57:47.207Z,0.34
2023-01-19T22:03:03.087Z,0.29
2023-01-19T22:08:06.452Z,0.30
2023-01-19T22:13:08.201Z,0.27
2023-01-19T22:18:10.433Z,0.22
2023-01-19T22:23:12.536Z,0.23
2023-01-19T22:28:14.663Z,0.23
2023-01-19T22:33:16.339Z,0.22
2023-01-19T22:38:18.030Z,0.12
2023-01-19T22:43:19.639Z,0.12
2023-01-19T22:48:22.279Z,0.09
2023-01-19T22:53:23.886Z,-0.02
2023-01-19T22:58:25.534Z,-0.07
2023-01-19T23:03:29.005Z,-0.13
2023-01-19T23:08:30.952Z,-0.19
2023-01-19T23:13:32.912Z,-0.16
2023-01-19T23:18:34.768Z,-0.15
2023-01-19T23:23:36.900Z,-0.21
2023-01-19T23:28:39.541Z,-0.23
2023-01-19T23:33:41.641Z,-0.25
2023-01-19T23:38:48.873Z,-0.40
2023-01-19T23:43:51.360Z,-0.48
2023-01-19T23:48:53.272Z,-0.46
2023-01-19T23:53:55.850Z,-0.45
2023-01-19T23:59:09.611Z,-0.51
